Time;durP1;ratioP1;P1;durP2;ratioP2;P2;SDS_P1;SDS_P2;PMS_P1;PMS_P2;Temp;Humidity;BMP_temperature;BMP_pressure;BME280_temperature;BME280_humidity;BME280_pressure;Samples;Min_cycle;Max_cycle;Signal;HPM_P1;HPM_P2
2022/09/04 00:00:21;;;;;;;1.65;0.30;;;;;;;;;;5060279;28;20287;-58
2022/09/04 00:02:56;;;;;;;0.55;0.47;;;;;;;;;;5058299;28;20200;-58
2022/09/04 00:05:28;;;;;;;0.63;0.57;;;;;;;;;;5050559;28;20203;-59
2022/09/04 00:08:04;;;;;;;0.52;0.50;;;;;;;;;;5057062;28;20662;-59
2022/09/04 00:10:33;;;;;;;0.40;0.40;;;;;;;;;;5059360;28;20260;-59
2022/09/04 00:13:04;;;;;;;1.15;0.80;;;;;;;;;;5049555;28;20729;-58
2022/09/04 00:15:35;;;;;;;0.50;0.50;;;;;;;;;;5050033;28;20468;-58
2022/09/04 00:18:04;;;;;;;0.60;0.60;;;;;;;;;;5049345;28;20239;-59
2022/09/04 00:20:36;;;;;;;0.77;0.77;;;;;;;;;;5050273;28;20212;-59
2022/09/04 00:23:09;;;;;;;0.70;0.70;;;;;;;;;;5048879;28;20652;-59
2022/09/04 00:25:41;;;;;;;1.38;0.68;;;;;;;;;;5058854;28;20203;-58
2022/09/04 00:28:12;;;;;;;0.85;0.73;;;;;;;;;;5060153;28;20202;-60
2022/09/04 00:30:44;;;;;;;0.40;0.40;;;;;;;;;;5052926;28;20203;-60
2022/09/04 00:33:14;;;;;;;0.73;0.65;;;;;;;;;;5067898;28;20202;-60
2022/09/04 00:35:43;;;;;;;0.63;0.60;;;;;;;;;;5070370;28;20214;-60
2022/09/04 00:38:14;;;;;;;1.02;0.85;;;;;;;;;;5055420;28;20238;-60
2022/09/04 00:40:43;;;;;;;0.70;0.70;;;;;;;;;;5060631;28;20315;-59
2022/09/04 00:43:32;;;;;;;0.90;0.90;;;;;;;;;;5061642;28;20203;-59
2022/09/04 00:46:05;;;;;;;1.73;0.90;;;;;;;;;;5051418;28;20211;-60
2022/09/04 00:48:47;;;;;;;2.13;0.63;;;;;;;;;;5052246;28;20214;-59
2022/09/04 00:51:22;;;;;;;1.17;0.55;;;;;;;;;;5061032;28;20302;-59
2022/09/04 00:54:02;;;;;;;0.50;0.50;;;;;;;;;;5055193;28;20210;-59
2022/09/04 00:56:50;;;;;;;0.57;0.57;;;;;;;;;;5064753;28;20222;-59
2022/09/04 00:59:23;;;;;;;0.38;0.38;;;;;;;;;;5048653;28;20650;-59
2022/09/04 01:01:54;;;;;;;0.57;0.57;;;;;;;;;;5050947;28;20207;-59
2022/09/04 01:04:27;;;;;;;0.30;0.30;;;;;;;;;;5066822;28;20203;-59
2022/09/04 01:07:02;;;;;;;0.40;0.40;;;;;;;;;;5068795;28;20195;-60
2022/09/04 01:09:40;;;;;;;0.47;0.40;;;;;;;;;;5051118;28;20207;-60
2022/09/04 01:12:11;;;;;;;0.50;0.50;;;;;;;;;;5051850;28;20199;-60
2022/09/04 01:14:41;;;;;;;0.30;0.30;;;;;;;;;;5051512;28;20325;-60
2022/09/04 01:17:11;;;;;;;0.50;0.50;;;;;;;;;;5054363;28;20215;-60
2022/09/04 01:19:43;;;;;;;0.50;0.50;;;;;;;;;;5050855;28;20223;-59
2022/09/04 01:22:24;;;;;;;0.70;0.50;;;;;;;;;;5058908;28;20256;-60
2022/09/04 01:25:04;;;;;;;0.55;0.55;;;;;;;;;;5068763;28;20304;-60
2022/09/04 01:27:35;;;;;;;0.60;0.60;;;;;;;;;;5063746;28;20260;-60
2022/09/04 01:30:06;;;;;;;0.50;0.50;;;;;;;;;;5062239;28;20235;-59
2022/09/04 01:32:40;;;;;;;2.05;0.70;;;;;;;;;;5060089;28;20214;-60
2022/09/04 01:35:12;;;;;;;0.30;0.30;;;;;;;;;;5057431;28;20246;-59
2022/09/04 01:37:46;;;;;;;0.70;0.70;;;;;;;;;;5063482;28;20211;-59
2022/09/04 01:40:26;;;;;;;0.60;0.60;;;;;;;;;;5070089;28;20211;-59
2022/09/04 01:42:56;;;;;;;0.90;0.50;;;;;;;;;;5064486;28;20807;-60
2022/09/04 01:45:28;;;;;;;1.02;0.45;;;;;;;;;;5068521;28;20198;-60
2022/09/04 01:47:59;;;;;;;0.50;0.50;;;;;;;;;;5053547;28;20207;-60
2022/09/04 01:50:27;;;;;;;0.45;0.45;;;;;;;;;;5061377;28;20214;-60
2022/09/04 01:52:57;;;;;;;0.60;0.60;;;;;;;;;;5058113;28;20207;-59
2022/09/04 01:55:27;;;;;;;0.77;0.77;;;;;;;;;;5059330;28;20204;-59
2022/09/04 01:57:59;;;;;;;0.75;0.75;;;;;;;;;;5062534;28;20215;-60
2022/09/04 02:00:30;;;;;;;0.80;0.80;;;;;;;;;;5050107;28;20215;-60
2022/09/04 02:03:01;;;;;;;1.05;1.05;;;;;;;;;;5048951;28;20214;-59
2022/09/04 02:05:31;;;;;;;0.93;0.93;;;;;;;;;;5056819;28;20203;-59
2022/09/04 02:08:02;;;;;;;0.73;0.73;;;;;;;;;;5057121;28;20215;-59
2022/09/04 02:10:34;;;;;;;1.00;1.00;;;;;;;;;;5059037;28;20195;-60
2022/09/04 02:13:11;;;;;;;0.88;0.60;;;;;;;;;;5056275;28;20216;-60
2022/09/04 02:15:42;;;;;;;0.57;0.57;;;;;;;;;;5059293;28;20677;-59
2022/09/04 02:18:14;;;;;;;1.27;0.75;;;;;;;;;;5050267;28;20682;-59
2022/09/04 02:20:47;;;;;;;0.80;0.80;;;;;;;;;;5049368;28;20653;-59
2022/09/04 02:23:19;;;;;;;0.68;0.68;;;;;;;;;;5050673;28;20832;-60
2022/09/04 02:25:49;;;;;;;0.57;0.57;;;;;;;;;;5055097;28;20272;-59
2022/09/04 02:28:23;;;;;;;0.82;0.70;;;;;;;;;;5069664;28;20202;-60
2022/09/04 02:30:54;;;;;;;0.63;0.63;;;;;;;;;;5066642;28;20321;-60
2022/09/04 02:33:26;;;;;;;2.50;0.70;;;;;;;;;;5069548;28;20268;-60
2022/09/04 02:35:55;;;;;;;1.20;1.00;;;;;;;;;;5064698;28;20211;-59
2022/09/04 02:38:30;;;;;;;3.97;1.73;;;;;;;;;;5050554;28;20231;-59
2022/09/04 02:41:01;;;;;;;5.28;2.42;;;;;;;;;;5060768;28;20195;-59
2022/09/04 02:43:42;;;;;;;5.38;1.90;;;;;;;;;;5064693;28;20207;-60
2022/09/04 02:46:13;;;;;;;5.28;2.17;;;;;;;;;;5053162;28;20206;-59
2022/09/04 02:48:47;;;;;;;7.65;2.47;;;;;;;;;;5051087;28;20207;-59
2022/09/04 02:51:19;;;;;;;8.98;2.55;;;;;;;;;;5049241;28;20218;-59
2022/09/04 02:53:53;;;;;;;8.43;2.05;;;;;;;;;;5065489;28;20210;-60
2022/09/04 02:56:25;;;;;;;10.27;2.42;;;;;;;;;;5067716;28;20207;-60
2022/09/04 02:59:06;;;;;;;7.65;2.67;;;;;;;;;;5048054;28;20237;-60
2022/09/04 03:01:37;;;;;;;9.73;2.95;;;;;;;;;;5067434;28;20222;-60
2022/09/04 03:04:07;;;;;;;6.03;2.13;;;;;;;;;;5055951;28;20696;-60
2022/09/04 03:06:51;;;;;;;10.77;3.13;;;;;;;;;;5048450;28;20641;-59
2022/09/04 03:09:21;;;;;;;12.00;3.00;;;;;;;;;;5048001;28;20564;-60
2022/09/04 03:11:51;;;;;;;13.30;2.75;;;;;;;;;;5047869;28;20212;-59
2022/09/04 03:14:23;;;;;;;9.80;3.00;;;;;;;;;;5048339;28;20312;-60
2022/09/04 03:16:52;;;;;;;10.55;2.70;;;;;;;;;;5047686;28;20239;-59
2022/09/04 03:19:22;;;;;;;10.10;3.22;;;;;;;;;;5047817;28;20227;-60
2022/09/04 03:21:51;;;;;;;8.75;2.70;;;;;;;;;;5047963;28;20211;-60
2022/09/04 03:24:22;;;;;;;8.13;2.22;;;;;;;;;;5047974;28;20246;-59
2022/09/04 03:26:52;;;;;;;7.03;2.70;;;;;;;;;;5048014;28;20670;-60
2022/09/04 03:29:27;;;;;;;8.02;2.70;;;;;;;;;;5048249;28;20728;-59
2022/09/04 03:32:06;;;;;;;12.25;3.03;;;;;;;;;;5058927;28;20203;-59
2022/09/04 03:34:37;;;;;;;7.35;2.45;;;;;;;;;;5069647;28;20669;-59
2022/09/04 03:37:09;;;;;;;9.43;2.90;;;;;;;;;;5055874;28;20298;-60
2022/09/04 03:39:41;;;;;;;7.95;2.92;;;;;;;;;;5055033;28;20701;-59
2022/09/04 03:42:14;;;;;;;11.23;2.88;;;;;;;;;;5052688;28;20203;-60
2022/09/04 03:44:47;;;;;;;12.27;2.95;;;;;;;;;;5051769;28;20700;-60
2022/09/04 03:47:18;;;;;;;7.88;2.40;;;;;;;;;;5052003;28;20204;-60
2022/09/04 03:49:53;;;;;;;5.70;2.55;;;;;;;;;;5064687;28;20206;-60
2022/09/04 03:52:23;;;;;;;8.90;2.90;;;;;;;;;;5066662;28;20207;-64
2022/09/04 03:55:05;;;;;;;7.57;2.70;;;;;;;;;;5063079;28;20203;-59
2022/09/04 03:57:43;;;;;;;7.35;2.53;;;;;;;;;;5047292;28;20218;-60
2022/09/04 04:00:17;;;;;;;7.88;2.45;;;;;;;;;;5056913;28;20230;-59
2022/09/04 04:02:58;;;;;;;10.27;3.67;;;;;;;;;;5062998;28;20203;-59
2022/09/04 04:05:27;;;;;;;8.65;3.00;;;;;;;;;;5069805;28;20564;-59
2022/09/04 04:08:04;;;;;;;9.15;2.70;;;;;;;;;;5061649;28;20281;-59
2022/09/04 04:10:38;;;;;;;12.85;3.05;;;;;;;;;;5051935;28;20203;-60
2022/09/04 04:13:20;;;;;;;13.10;3.33;;;;;;;;;;5064195;28;20685;-60
2022/09/04 04:15:55;;;;;;;7.40;3.35;;;;;;;;;;5060207;28;20257;-60
2022/09/04 04:18:30;;;;;;;11.43;3.70;;;;;;;;;;5071118;28;20241;-59
2022/09/04 04:21:01;;;;;;;12.88;3.70;;;;;;;;;;5070755;28;20199;-59
2022/09/04 04:23:55;;;;;;;10.93;4.15;;;;;;;;;;5064269;28;20238;-59
2022/09/04 04:26:30;;;;;;;13.07;4.05;;;;;;;;;;5051086;28;20215;-59
2022/09/04 04:29:07;;;;;;;18.98;4.72;;;;;;;;;;5054430;28;20196;-60
2022/09/04 04:31:44;;;;;;;18.20;4.68;;;;;;;;;;5067215;28;20214;-59
2022/09/04 04:34:19;;;;;;;17.52;4.05;;;;;;;;;;5055154;28;20290;-59
2022/09/04 04:36:49;;;;;;;11.32;3.35;;;;;;;;;;5064531;28;20604;-59
2022/09/04 04:39:24;;;;;;;19.77;5.28;;;;;;;;;;5052142;28;20219;-60
2022/09/04 04:42:04;;;;;;;16.60;4.82;;;;;;;;;;5051161;28;20651;-59
2022/09/04 04:47:22;;;;;;;18.38;4.80;;;;;;;;;;5061300;28;20257;-59
2022/09/04 04:49:58;;;;;;;14.73;4.85;;;;;;;;;;5054029;28;20211;-60
2022/09/04 04:52:29;;;;;;;19.70;5.55;;;;;;;;;;5052145;28;20216;-60
2022/09/04 04:55:11;;;;;;;15.10;4.88;;;;;;;;;;5062756;28;20319;-60
2022/09/04 04:57:51;;;;;;;14.68;4.88;;;;;;;;;;5062826;28;20272;-60
2022/09/04 05:00:20;;;;;;;21.70;5.65;;;;;;;;;;5067925;28;20233;-59
2022/09/04 05:02:54;;;;;;;14.30;5.00;;;;;;;;;;5070061;28;20305;-60
2022/09/04 05:05:25;;;;;;;14.82;4.95;;;;;;;;;;5058713;28;20290;-60
2022/09/04 05:07:59;;;;;;;19.02;4.82;;;;;;;;;;5050933;28;20242;-59
2022/09/04 05:10:31;;;;;;;14.48;5.20;;;;;;;;;;5051149;28;20919;-60
2022/09/04 05:13:01;;;;;;;11.20;4.25;;;;;;;;;;5048992;28;20622;-60
2022/09/04 05:15:33;;;;;;;9.77;4.40;;;;;;;;;;5059935;28;20677;-60
2022/09/04 05:18:05;;;;;;;14.55;5.38;;;;;;;;;;5069905;28;20241;-59
2022/09/04 05:20:39;;;;;;;11.20;4.70;;;;;;;;;;5060752;28;20702;-60
2022/09/04 05:23:13;;;;;;;11.50;4.97;;;;;;;;;;5050315;28;20243;-60
2022/09/04 05:25:43;;;;;;;10.30;4.43;;;;;;;;;;5055954;28;20203;-60
2022/09/04 05:28:20;;;;;;;10.55;4.38;;;;;;;;;;5050414;28;20277;-60
2022/09/04 05:30:48;;;;;;;11.43;4.68;;;;;;;;;;5057143;28;20244;-60
2022/09/04 05:33:20;;;;;;;13.75;3.88;;;;;;;;;;5049908;28;20583;-60
2022/09/04 05:35:50;;;;;;;7.13;4.20;;;;;;;;;;5057335;28;20666;-60
2022/09/04 05:38:21;;;;;;;8.43;4.93;;;;;;;;;;5049946;28;20208;-60
2022/09/04 05:40:57;;;;;;;9.60;5.32;;;;;;;;;;5053468;28;20227;-60
2022/09/04 05:43:30;;;;;;;12.30;5.03;;;;;;;;;;5050428;28;20211;-60
2022/09/04 05:46:04;;;;;;;13.90;5.68;;;;;;;;;;5060597;28;20207;-59
2022/09/04 05:48:35;;;;;;;9.60;4.65;;;;;;;;;;5069104;28;20214;-59
2022/09/04 05:51:09;;;;;;;10.70;4.60;;;;;;;;;;5049569;28;20214;-59
2022/09/04 05:53:50;;;;;;;8.65;4.15;;;;;;;;;;5049625;28;20226;-59
2022/09/04 05:56:24;;;;;;;11.18;5.28;;;;;;;;;;5049056;28;20553;-60
2022/09/04 05:59:05;;;;;;;10.90;5.03;;;;;;;;;;5049657;28;20257;-59
2022/09/04 06:01:50;;;;;;;6.05;3.50;;;;;;;;;;5049653;28;20206;-60
2022/09/04 06:04:25;;;;;;;6.07;4.28;;;;;;;;;;5049677;28;20634;-60
2022/09/04 06:06:57;;;;;;;8.25;4.97;;;;;;;;;;5049590;28;20214;-60
2022/09/04 06:09:45;;;;;;;9.25;4.18;;;;;;;;;;5049548;28;20246;-59
2022/09/04 06:12:18;;;;;;;6.35;4.35;;;;;;;;;;5049519;28;20678;-59
2022/09/04 06:14:55;;;;;;;8.60;4.15;;;;;;;;;;5049453;28;20207;-59
2022/09/04 06:17:29;;;;;;;8.00;4.07;;;;;;;;;;5049024;28;20234;-59
2022/09/04 06:20:09;;;;;;;10.70;5.22;;;;;;;;;;5060810;28;20561;-61
2022/09/04 06:23:01;;;;;;;10.40;4.15;;;;;;;;;;5047071;28;20437;-59
2022/09/04 06:25:40;;;;;;;9.13;4.70;;;;;;;;;;5030018;28;20642;-60
2022/09/04 06:28:11;;;;;;;10.00;4.93;;;;;;;;;;5049137;28;20207;-59
2022/09/04 06:30:42;;;;;;;10.88;5.00;;;;;;;;;;5055761;28;20674;-59
2022/09/04 06:33:17;;;;;;;11.45;5.60;;;;;;;;;;5057509;28;20199;-60
2022/09/04 06:35:52;;;;;;;10.77;4.53;;;;;;;;;;5053543;28;20686;-60
2022/09/04 06:38:32;;;;;;;10.45;5.38;;;;;;;;;;5059151;28;20211;-59
2022/09/04 06:41:07;;;;;;;10.85;4.85;;;;;;;;;;5057164;28;20573;-59
2022/09/04 06:43:38;;;;;;;7.10;4.50;;;;;;;;;;5053250;28;20322;-61
2022/09/04 06:46:11;;;;;;;5.75;4.07;;;;;;;;;;5058942;28;20237;-60
2022/09/04 06:48:43;;;;;;;7.05;4.25;;;;;;;;;;5058077;28;20215;-60
2022/09/04 06:51:19;;;;;;;7.22;3.63;;;;;;;;;;5058731;28;20206;-60
2022/09/04 06:53:52;;;;;;;4.68;2.80;;;;;;;;;;5052276;28;20249;-61
2022/09/04 06:56:27;;;;;;;2.88;2.67;;;;;;;;;;5060215;28;20203;-61
2022/09/04 06:59:04;;;;;;;2.65;2.45;;;;;;;;;;5057948;28;20203;-61
2022/09/04 07:01:39;;;;;;;2.90;2.60;;;;;;;;;;5054332;28;20219;-61
2022/09/04 07:04:10;;;;;;;3.40;2.60;;;;;;;;;;5056080;28;20199;-60
2022/09/04 07:06:46;;;;;;;2.40;2.22;;;;;;;;;;5056250;28;20211;-60
2022/09/04 07:09:16;;;;;;;2.95;2.75;;;;;;;;;;5061377;28;20251;-61
2022/09/04 07:12:06;;;;;;;2.42;2.22;;;;;;;;;;5063276;28;20215;-58
2022/09/04 07:14:41;;;;;;;3.72;2.42;;;;;;;;;;5059426;28;20206;-61
2022/09/04 07:17:11;;;;;;;3.28;2.55;;;;;;;;;;5061362;28;20256;-61
2022/09/04 07:20:02;;;;;;;2.65;2.45;;;;;;;;;;5059823;28;20307;-61
2022/09/04 07:22:41;;;;;;;3.55;2.40;;;;;;;;;;5050812;28;20207;-61
2022/09/04 07:25:11;;;;;;;3.33;2.90;;;;;;;;;;5060707;28;20211;-60
2022/09/04 07:27:49;;;;;;;2.90;2.63;;;;;;;;;;5061205;28;20665;-60
2022/09/04 07:30:18;;;;;;;2.60;2.42;;;;;;;;;;5057450;28;20220;-61
2022/09/04 07:32:49;;;;;;;2.97;2.70;;;;;;;;;;5055834;28;20207;-59
2022/09/04 07:35:20;;;;;;;6.35;3.10;;;;;;;;;;5064095;28;20211;-59
2022/09/04 07:37:54;;;;;;;3.30;3.10;;;;;;;;;;5061592;28;20210;-60
2022/09/04 07:40:23;;;;;;;3.00;2.65;;;;;;;;;;5057778;28;20313;-60
2022/09/04 07:42:53;;;;;;;3.95;2.63;;;;;;;;;;5063250;28;20217;-60
2022/09/04 07:45:29;;;;;;;2.95;2.70;;;;;;;;;;5056937;28;20207;-59
2022/09/04 07:48:00;;;;;;;3.40;2.72;;;;;;;;;;5052148;28;20236;-61
2022/09/04 07:50:34;;;;;;;3.00;2.55;;;;;;;;;;5051907;28;20211;-60
2022/09/04 07:53:13;;;;;;;3.78;3.10;;;;;;;;;;5059648;28;20214;-61
2022/09/04 07:55:45;;;;;;;4.20;3.08;;;;;;;;;;5068019;28;20208;-63
2022/09/04 07:58:21;;;;;;;2.78;2.55;;;;;;;;;;5058570;28;20897;-60
2022/09/04 08:00:55;;;;;;;3.88;3.33;;;;;;;;;;5060541;28;20700;-60
2022/09/04 08:03:30;;;;;;;4.75;3.20;;;;;;;;;;5065845;28;20634;-60
2022/09/04 08:06:00;;;;;;;4.40;3.03;;;;;;;;;;5055207;28;20226;-61
2022/09/04 08:08:43;;;;;;;3.75;3.45;;;;;;;;;;5061145;28;20215;-60
2022/09/04 08:11:16;;;;;;;3.53;3.20;;;;;;;;;;5069289;28;20234;-61
2022/09/04 08:13:49;;;;;;;3.22;3.00;;;;;;;;;;5071576;28;20563;-60
2022/09/04 08:16:19;;;;;;;4.10;2.90;;;;;;;;;;5068574;28;20199;-61
2022/09/04 08:18:56;;;;;;;5.25;4.03;;;;;;;;;;5065217;28;20226;-60
2022/09/04 08:21:26;;;;;;;6.13;3.78;;;;;;;;;;5059717;28;20586;-60
2022/09/04 08:24:11;;;;;;;4.07;3.65;;;;;;;;;;5071061;28;20330;-59
2022/09/04 08:26:44;;;;;;;7.55;4.28;;;;;;;;;;5055481;28;20212;-60
2022/09/04 08:29:19;;;;;;;3.30;3.10;;;;;;;;;;5052743;28;20319;-59
2022/09/04 08:31:54;;;;;;;3.45;3.25;;;;;;;;;;5071394;28;20233;-59
2022/09/04 08:34:39;;;;;;;5.43;4.47;;;;;;;;;;5056802;28;20206;-60
2022/09/04 08:37:12;;;;;;;3.97;3.58;;;;;;;;;;5070118;28;20203;-60
2022/09/04 08:39:46;;;;;;;4.82;3.70;;;;;;;;;;5052508;28;20227;-60
2022/09/04 08:42:27;;;;;;;6.28;3.97;;;;;;;;;;5056353;28;20200;-60
2022/09/04 08:45:15;;;;;;;5.70;4.18;;;;;;;;;;5060376;28;20200;-60
2022/09/04 08:47:53;;;;;;;5.57;4.30;;;;;;;;;;5059357;28;20207;-59
2022/09/04 08:50:50;;;;;;;4.28;3.70;;;;;;;;;;5070012;28;20291;-60
2022/09/04 08:53:36;;;;;;;4.97;3.95;;;;;;;;;;5027226;28;20208;-59
2022/09/04 08:56:21;;;;;;;6.03;4.40;;;;;;;;;;5051837;28;20301;-60
2022/09/04 08:59:07;;;;;;;5.25;4.70;;;;;;;;;;5070340;28;20203;-62
2022/09/04 09:01:47;;;;;;;6.95;4.65;;;;;;;;;;5063282;28;20219;-62
2022/09/04 09:04:32;;;;;;;7.55;5.20;;;;;;;;;;5051719;28;20676;-62
2022/09/04 09:07:12;;;;;;;9.13;4.95;;;;;;;;;;5037178;28;20336;-62
2022/09/04 09:09:54;;;;;;;7.13;4.75;;;;;;;;;;5051079;28;20244;-63
2022/09/04 09:12:37;;;;;;;5.85;4.38;;;;;;;;;;5049321;28;20206;-62
2022/09/04 09:15:16;;;;;;;4.95;4.50;;;;;;;;;;5049321;28;20212;-60
2022/09/04 09:17:52;;;;;;;7.05;4.85;;;;;;;;;;5047524;28;20226;-60
2022/09/04 09:20:27;;;;;;;4.88;4.28;;;;;;;;;;5065347;28;20237;-60
2022/09/04 09:23:15;;;;;;;4.85;4.40;;;;;;;;;;5057417;28;20728;-60
2022/09/04 09:25:47;;;;;;;7.68;4.88;;;;;;;;;;5048170;28;20200;-60
2022/09/04 09:28:40;;;;;;;5.53;4.70;;;;;;;;;;5051160;28;20273;-60
2022/09/04 09:31:25;;;;;;;6.35;4.70;;;;;;;;;;5057178;28;20580;-59
2022/09/04 09:34:19;;;;;;;4.72;3.88;;;;;;;;;;5030964;28;20222;-59
2022/09/04 09:36:59;;;;;;;7.75;4.78;;;;;;;;;;5030460;28;20207;-63
2022/09/04 09:39:38;;;;;;;6.22;5.00;;;;;;;;;;5068825;28;20309;-60
2022/09/04 09:42:16;;;;;;;6.25;4.55;;;;;;;;;;5052422;28;20312;-59
2022/09/04 09:44:55;;;;;;;8.02;4.80;;;;;;;;;;5048414;28;20219;-59
2022/09/04 09:47:52;;;;;;;5.32;4.82;;;;;;;;;;5061451;28;20203;-59
2022/09/04 09:50:29;;;;;;;6.38;5.07;;;;;;;;;;4987206;28;20213;-59
2022/09/04 09:53:27;;;;;;;6.32;4.45;;;;;;;;;;5040053;28;20215;-60
2022/09/04 09:56:03;;;;;;;5.68;5.10;;;;;;;;;;5049605;28;20280;-60
2022/09/04 09:58:43;;;;;;;6.32;5.00;;;;;;;;;;5050548;28;20293;-60
2022/09/04 10:01:19;;;;;;;5.68;5.15;;;;;;;;;;5058017;28;20264;-60
2022/09/04 10:04:10;;;;;;;5.28;4.78;;;;;;;;;;5067109;28;20212;-60
2022/09/04 10:06:56;;;;;;;7.13;4.63;;;;;;;;;;5056386;28;20205;-60
2022/09/04 10:09:47;;;;;;;6.47;5.00;;;;;;;;;;5055293;28;20214;-61
2022/09/04 10:12:30;;;;;;;8.00;5.68;;;;;;;;;;5058922;28;20648;-59
2022/09/04 10:15:21;;;;;;;8.10;5.68;;;;;;;;;;5066169;28;20293;-59
2022/09/04 10:18:05;;;;;;;7.55;4.97;;;;;;;;;;5064681;28;20304;-59
2022/09/04 10:20:41;;;;;;;5.35;4.53;;;;;;;;;;5052425;28;20231;-59
2022/09/04 10:23:25;;;;;;;7.05;5.20;;;;;;;;;;5056514;28;20665;-60
2022/09/04 10:26:10;;;;;;;5.97;4.68;;;;;;;;;;5065188;28;20259;-60
2022/09/04 10:28:47;;;;;;;8.52;4.97;;;;;;;;;;5049318;28;20199;-64
2022/09/04 10:31:24;;;;;;;5.95;5.20;;;;;;;;;;5049968;28;20245;-66
2022/09/04 10:34:01;;;;;;;7.07;5.25;;;;;;;;;;5047410;28;20211;-65
2022/09/04 10:36:35;;;;;;;6.43;5.28;;;;;;;;;;5054093;28;20731;-64
2022/09/04 10:42:01;;;;;;;10.65;5.63;;;;;;;;;;5056614;28;20233;-61
2022/09/04 10:44:36;;;;;;;9.50;5.85;;;;;;;;;;5069908;28;20662;-61
2022/09/04 10:47:10;;;;;;;6.72;4.95;;;;;;;;;;5071129;28;20637;-62
2022/09/04 10:50:01;;;;;;;9.55;6.22;;;;;;;;;;5053901;28;20219;-62
2022/09/04 10:52:47;;;;;;;103.78;42.10;;;;;;;;;;5038263;28;20199;-60
2022/09/04 10:55:21;;;;;;;38.65;20.60;;;;;;;;;;5051840;28;20810;-59
2022/09/04 10:57:58;;;;;;;60.38;26.30;;;;;;;;;;5050739;28;20212;-59
2022/09/04 11:00:27;;;;;;;37.00;18.83;;;;;;;;;;5051250;28;20269;-59
2022/09/04 11:03:27;;;;;;;22.25;11.55;;;;;;;;;;5054163;28;20781;-60
2022/09/04 11:06:11;;;;;;;17.75;8.35;;;;;;;;;;5006216;28;20295;-61
2022/09/04 11:08:50;;;;;;;8.15;5.70;;;;;;;;;;5032735;28;20207;-62
2022/09/04 11:11:26;;;;;;;6.43;4.85;;;;;;;;;;5059375;28;20276;-61
2022/09/04 11:14:15;;;;;;;10.35;5.28;;;;;;;;;;5055810;28;20211;-66
2022/09/04 11:16:57;;;;;;;6.00;4.43;;;;;;;;;;5055132;28;20211;-61
2022/09/04 11:19:43;;;;;;;5.57;4.97;;;;;;;;;;5050840;28;20218;-61
2022/09/04 11:22:39;;;;;;;5.07;4.57;;;;;;;;;;5058539;28;20235;-62
2022/09/04 11:25:33;;;;;;;5.25;4.53;;;;;;;;;;5071102;28;20760;-62
2022/09/04 11:28:06;;;;;;;4.40;4.03;;;;;;;;;;5071371;28;20219;-61
2022/09/04 11:30:41;;;;;;;4.80;3.90;;;;;;;;;;5064166;28;20203;-61
2022/09/04 11:33:41;;;;;;;3.90;3.55;;;;;;;;;;5065871;28;20213;-62
2022/09/04 11:36:13;;;;;;;4.30;3.95;;;;;;;;;;5051211;28;20203;-61
2022/09/04 11:38:53;;;;;;;4.00;3.58;;;;;;;;;;5057907;28;20872;-61
2022/09/04 11:41:38;;;;;;;3.90;3.60;;;;;;;;;;5071143;28;20757;-62
2022/09/04 11:44:17;;;;;;;4.38;3.92;;;;;;;;;;5063104;28;20210;-62
2022/09/04 11:46:57;;;;;;;3.75;3.45;;;;;;;;;;5051335;28;20207;-62
2022/09/04 11:49:33;;;;;;;2.80;2.63;;;;;;;;;;5055405;28;20222;-62
2022/09/04 11:52:07;;;;;;;3.05;2.85;;;;;;;;;;5061406;28;20317;-62
2022/09/04 11:54:47;;;;;;;2.85;2.33;;;;;;;;;;5064236;28;20199;-69
2022/09/04 11:57:21;;;;;;;2.08;1.92;;;;;;;;;;5065192;28;20872;-65
2022/09/04 12:00:02;;;;;;;2.65;2.55;;;;;;;;;;5058558;28;20214;-65
2022/09/04 12:02:37;;;;;;;2.58;2.47;;;;;;;;;;5067509;28;20226;-62
2022/09/04 12:05:11;;;;;;;2.40;2.30;;;;;;;;;;5065118;28;20206;-63
2022/09/04 12:07:44;;;;;;;1.95;1.88;;;;;;;;;;5061327;28;20217;-62
2022/09/04 12:10:18;;;;;;;1.73;1.73;;;;;;;;;;5061320;28;20207;-62
2022/09/04 12:12:52;;;;;;;2.08;2.00;;;;;;;;;;5056689;28;20293;-62
2022/09/04 12:15:43;;;;;;;2.03;1.90;;;;;;;;;;5058312;28;20207;-61
2022/09/04 12:18:20;;;;;;;1.80;1.70;;;;;;;;;;5069680;28;20238;-62
2022/09/04 12:20:57;;;;;;;1.40;1.40;;;;;;;;;;5062640;28;20217;-62
2022/09/04 12:23:40;;;;;;;1.33;1.33;;;;;;;;;;5050548;28;20234;-62
2022/09/04 12:26:24;;;;;;;1.60;1.60;;;;;;;;;;5051649;28;20212;-62
2022/09/04 12:32:27;;;;;;;0.98;0.98;;;;;;;;;;5037703;28;20263;-61
2022/09/04 12:35:09;;;;;;;0.95;0.80;;;;;;;;;;5049961;28;20215;-61
2022/09/04 12:37:48;;;;;;;1.20;1.20;;;;;;;;;;5058719;28;20207;-61
2022/09/04 12:40:36;;;;;;;1.08;1.08;;;;;;;;;;5068281;28;20215;-61
2022/09/04 12:43:15;;;;;;;0.90;0.90;;;;;;;;;;5062233;28;20280;-60
2022/09/04 12:45:46;;;;;;;0.93;0.93;;;;;;;;;;5069524;28;20213;-59
2022/09/04 12:48:16;;;;;;;0.80;0.80;;;;;;;;;;5069611;28;20207;-60
2022/09/04 12:50:48;;;;;;;0.75;0.75;;;;;;;;;;5067195;28;20207;-60
2022/09/04 12:53:24;;;;;;;0.90;0.90;;;;;;;;;;5068337;28;20237;-60
2022/09/04 12:55:57;;;;;;;0.90;0.90;;;;;;;;;;5068939;28;20240;-64
2022/09/04 12:58:32;;;;;;;1.02;1.02;;;;;;;;;;5055898;28;20212;-61
2022/09/04 13:01:07;;;;;;;0.70;0.70;;;;;;;;;;5049086;28;20215;-62
2022/09/04 13:03:38;;;;;;;0.70;0.70;;;;;;;;;;5049230;28;20203;-62
2022/09/04 13:06:11;;;;;;;1.40;0.75;;;;;;;;;;5066234;28;20244;-61
2022/09/04 13:08:43;;;;;;;1.08;1.08;;;;;;;;;;5068083;28;20621;-61
2022/09/04 13:11:18;;;;;;;0.80;0.80;;;;;;;;;;5068697;28;20218;-61
2022/09/04 13:13:50;;;;;;;1.00;1.00;;;;;;;;;;5068708;28;20202;-61
2022/09/04 13:16:22;;;;;;;0.98;0.98;;;;;;;;;;5051506;28;20325;-61
2022/09/04 13:18:59;;;;;;;0.95;0.95;;;;;;;;;;5048361;28;20228;-61
2022/09/04 13:21:32;;;;;;;0.50;0.50;;;;;;;;;;5048689;28;20200;-60
2022/09/04 13:24:24;;;;;;;0.60;0.60;;;;;;;;;;5048557;28;20247;-61
2022/09/04 13:27:07;;;;;;;0.88;0.75;;;;;;;;;;5067598;28;20219;-61
2022/09/04 13:29:40;;;;;;;0.65;0.65;;;;;;;;;;5068335;28;20565;-62
2022/09/04 13:32:28;;;;;;;0.50;0.50;;;;;;;;;;5068275;28;20211;-61
2022/09/04 13:35:02;;;;;;;0.95;0.60;;;;;;;;;;5067109;28;20941;-62
2022/09/04 13:37:35;;;;;;;0.50;0.50;;;;;;;;;;5059636;28;20207;-62
2022/09/04 13:40:15;;;;;;;0.70;0.70;;;;;;;;;;5048489;28;20208;-61
2022/09/04 13:42:50;;;;;;;0.60;0.60;;;;;;;;;;5054022;28;20269;-61
2022/09/04 13:45:22;;;;;;;0.75;0.75;;;;;;;;;;5061163;28;20214;-61
2022/09/04 13:47:50;;;;;;;0.82;0.68;;;;;;;;;;5060116;28;20673;-61
2022/09/04 13:50:20;;;;;;;1.35;0.63;;;;;;;;;;5060091;28;20290;-62
2022/09/04 13:52:51;;;;;;;0.93;0.70;;;;;;;;;;5061864;28;20199;-62
2022/09/04 13:55:21;;;;;;;0.70;0.70;;;;;;;;;;5068537;28;20213;-62
2022/09/04 13:57:56;;;;;;;0.70;0.70;;;;;;;;;;5052851;28;20638;-62
2022/09/04 14:00:23;;;;;;;0.70;0.70;;;;;;;;;;5065852;28;20202;-61
2022/09/04 14:02:54;;;;;;;0.73;0.73;;;;;;;;;;5058430;28;20301;-61
2022/09/04 14:05:24;;;;;;;0.80;0.80;;;;;;;;;;5057292;28;20199;-61
2022/09/04 14:07:57;;;;;;;0.80;0.80;;;;;;;;;;5068051;28;20215;-61
2022/09/04 14:10:28;;;;;;;0.80;0.80;;;;;;;;;;5064500;28;20225;-61
2022/09/04 14:13:12;;;;;;;1.00;0.63;;;;;;;;;;5067828;28;20952;-61
2022/09/04 14:15:58;;;;;;;0.60;0.60;;;;;;;;;;5067656;28;20709;-61
2022/09/04 14:18:34;;;;;;;0.95;0.82;;;;;;;;;;5067968;28;20222;-60
2022/09/04 14:21:02;;;;;;;0.80;0.80;;;;;;;;;;5051769;28;20294;-61
2022/09/04 14:23:38;;;;;;;0.93;0.93;;;;;;;;;;5065982;28;20258;-61
2022/09/04 14:26:11;;;;;;;0.80;0.80;;;;;;;;;;5067550;28;20206;-59
2022/09/04 14:28:41;;;;;;;0.85;0.85;;;;;;;;;;5064341;28;20221;-59
2022/09/04 14:31:12;;;;;;;0.80;0.80;;;;;;;;;;5048417;28;20701;-60
2022/09/04 14:33:44;;;;;;;0.95;0.95;;;;;;;;;;5047374;28;20258;-61
2022/09/04 14:36:17;;;;;;;0.70;0.70;;;;;;;;;;5056227;28;20696;-61
2022/09/04 14:38:59;;;;;;;0.80;0.80;;;;;;;;;;5067215;28;20234;-62
2022/09/04 14:41:33;;;;;;;0.90;0.90;;;;;;;;;;5053048;28;20204;-61
2022/09/04 14:44:06;;;;;;;0.90;0.90;;;;;;;;;;5048138;28;20231;-60
2022/09/04 14:46:37;;;;;;;0.70;0.70;;;;;;;;;;5055084;28;20202;-60
2022/09/04 14:49:05;;;;;;;0.73;0.73;;;;;;;;;;5059017;28;20323;-60
2022/09/04 14:51:34;;;;;;;0.60;0.60;;;;;;;;;;5047932;28;20318;-60
2022/09/04 14:54:02;;;;;;;0.75;0.73;;;;;;;;;;5051783;28;20261;-60
2022/09/04 14:56:34;;;;;;;0.60;0.60;;;;;;;;;;5068365;28;20222;-59
2022/09/04 14:59:06;;;;;;;0.70;0.70;;;;;;;;;;5066297;28;20571;-60
2022/09/04 15:01:36;;;;;;;0.63;0.63;;;;;;;;;;5053456;28;20699;-60
2022/09/04 15:04:06;;;;;;;0.60;0.60;;;;;;;;;;5054445;28;20295;-60
2022/09/04 15:06:36;;;;;;;0.60;0.60;;;;;;;;;;5054706;28;20367;-60
2022/09/04 15:09:24;;;;;;;0.80;0.80;;;;;;;;;;5060878;28;20211;-61
2022/09/04 15:11:55;;;;;;;0.80;0.80;;;;;;;;;;5065671;28;20234;-60
2022/09/04 15:14:27;;;;;;;1.00;1.00;;;;;;;;;;5063426;28;20203;-60
2022/09/04 15:16:58;;;;;;;0.82;0.82;;;;;;;;;;5056110;28;20868;-62
2022/09/04 15:19:34;;;;;;;0.95;0.95;;;;;;;;;;5046180;28;20200;-61
2022/09/04 15:22:04;;;;;;;4.47;1.70;;;;;;;;;;5047109;28;20219;-61
2022/09/04 15:24:36;;;;;;;17.60;5.85;;;;;;;;;;5046565;28;20746;-62
2022/09/04 15:27:12;;;;;;;98.55;34.45;;;;;;;;;;5053585;28;20297;-60
2022/09/04 15:29:43;;;;;;;1.67;1.58;;;;;;;;;;5067878;28;20752;-60
2022/09/04 15:32:10;;;;;;;2.00;1.70;;;;;;;;;;5069692;28;20203;-60
2022/09/04 15:34:38;;;;;;;1.05;1.00;;;;;;;;;;5069713;28;20272;-60
2022/09/04 15:37:19;;;;;;;0.88;0.88;;;;;;;;;;5069253;28;20215;-60
2022/09/04 15:39:52;;;;;;;1.10;1.10;;;;;;;;;;5070100;28;20709;-60